Time;durP1;ratioP1;P1;durP2;ratioP2;P2;SDS_P1;SDS_P2;PMS_P1;PMS_P2;Temp;Humidity;BMP_temperature;BMP_pressure;BME280_temperature;BME280_humidity;BME280_pressure;Samples;Min_cycle;Max_cycle;Signal;HPM_P1;HPM_P2
2022/08/09 00:03:43;;;;;;;3.45;1.98;;;;;;;12.40;81.99;97470.44;10578394;28;20197;-70
2022/08/09 00:08:47;;;;;;;2.53;2.08;;;;;;;12.41;82.44;97475.53;10578960;28;20201;-70
2022/08/09 00:13:48;;;;;;;2.40;1.80;;;;;;;12.34;82.65;97471.03;10578462;28;20198;-70
2022/08/09 00:18:49;;;;;;;3.55;1.80;;;;;;;12.29;82.94;97464.41;10577732;28;20221;-70
2022/08/09 00:23:49;;;;;;;2.47;1.95;;;;;;;12.28;82.94;97470.66;10577609;28;20281;-70
2022/08/09 00:28:49;;;;;;;2.72;1.75;;;;;;;12.31;82.76;97466.91;10577521;28;20213;-70
2022/08/09 00:33:51;;;;;;;4.43;2.13;;;;;;;12.24;82.96;97473.75;10577805;28;20217;-70
2022/08/09 00:38:51;;;;;;;3.35;1.92;;;;;;;12.16;83.91;97471.00;10576786;28;20253;-69
2022/08/09 00:43:52;;;;;;;3.03;2.10;;;;;;;12.04;84.28;97468.59;10576518;28;20276;-70
2022/08/09 00:48:52;;;;;;;3.00;1.80;;;;;;;12.01;84.78;97479.41;10576581;28;20209;-69
2022/08/09 00:53:53;;;;;;;3.75;1.83;;;;;;;11.98;84.88;97478.88;10576809;28;20229;-70
2022/08/09 00:58:53;;;;;;;4.38;2.30;;;;;;;11.96;85.36;97471.13;10575377;28;20308;-70
2022/08/09 01:04:24;;;;;;;2.00;1.80;;;;;;;11.87;85.76;97472.00;10575439;28;20190;-70
2022/08/09 01:09:37;;;;;;;2.67;2.20;;;;;;;11.73;86.44;97479.38;10567566;28;20194;-70
2022/08/09 01:14:44;;;;;;;1.97;1.77;;;;;;;11.64;87.16;97485.47;10576162;28;20186;-70
2022/08/09 01:19:53;;;;;;;3.40;2.13;;;;;;;11.65;87.62;97479.25;10575623;28;20754;-71
2022/08/09 01:25:18;;;;;;;2.57;1.80;;;;;;;11.56;88.07;97486.19;10556942;28;20277;-70
2022/08/09 01:30:22;;;;;;;1.83;1.70;;;;;;;11.55;88.18;97483.72;10575232;28;20193;-70
2022/08/09 01:35:34;;;;;;;4.97;1.87;;;;;;;11.57;88.05;97487.00;10556738;28;20554;-70
2022/08/09 01:40:35;;;;;;;1.83;1.70;;;;;;;11.56;88.69;97487.97;10556924;28;20218;-70
2022/08/09 01:45:35;;;;;;;1.90;1.80;;;;;;;11.50;88.93;97483.31;10556441;28;20220;-71
2022/08/09 01:50:36;;;;;;;1.83;1.63;;;;;;;11.48;88.70;97490.50;10556473;28;20228;-70
2022/08/09 01:55:38;;;;;;;2.33;2.13;;;;;;;11.49;88.69;97474.63;10556708;28;20237;-70
2022/08/09 02:00:40;;;;;;;2.80;1.80;;;;;;;11.38;89.43;97483.47;10555939;28;20233;-70
2022/08/09 02:05:43;;;;;;;2.23;2.00;;;;;;;11.26;90.48;97495.13;10556473;28;20189;-70
2022/08/09 02:10:46;;;;;;;2.03;1.80;;;;;;;11.33;90.04;97498.84;10574295;28;20178;-70
2022/08/09 02:15:48;;;;;;;4.07;1.90;;;;;;;11.27;89.68;97501.19;10556239;28;20562;-69
2022/08/09 02:20:54;;;;;;;2.97;2.03;;;;;;;11.23;90.84;97503.25;10555885;28;20221;-69
2022/08/09 02:25:56;;;;;;;1.80;1.70;;;;;;;11.23;90.25;97508.50;10555685;28;20197;-69
2022/08/09 02:31:01;;;;;;;2.30;2.10;;;;;;;11.12;90.66;97511.28;10555517;28;20434;-70
2022/08/09 02:36:08;;;;;;;3.87;1.80;;;;;;;11.07;91.03;97512.53;10555643;28;20297;-70
2022/08/09 02:41:11;;;;;;;4.10;2.00;;;;;;;11.02;91.60;97511.28;10555730;28;20214;-70
2022/08/09 02:46:12;;;;;;;4.00;2.27;;;;;;;11.01;91.67;97510.47;10555187;28;20193;-70
2022/08/09 02:51:17;;;;;;;2.50;1.77;;;;;;;10.95;92.56;97512.81;10573665;28;20190;-70
2022/08/09 02:56:17;;;;;;;2.07;1.87;;;;;;;10.88;93.49;97510.75;10555106;28;20720;-70
2022/08/09 03:01:18;;;;;;;2.60;2.00;;;;;;;10.88;92.99;97505.50;10555076;28;20218;-70
2022/08/09 03:06:20;;;;;;;1.73;1.63;;;;;;;10.87;92.74;97505.63;10512223;28;20318;-69
2022/08/09 03:11:22;;;;;;;2.63;1.93;;;;;;;10.76;93.02;97509.22;10530066;28;20191;-69
2022/08/09 03:16:23;;;;;;;2.50;1.80;;;;;;;10.77;94.16;97512.69;10512952;28;20179;-70
2022/08/09 03:21:24;;;;;;;1.80;1.70;;;;;;;10.74;94.13;97510.34;10511725;28;20214;-70
2022/08/09 03:26:24;;;;;;;2.57;2.00;;;;;;;10.71;94.41;97509.63;10511146;28;20229;-70
2022/08/09 03:31:25;;;;;;;1.77;1.67;;;;;;;10.66;94.46;97511.84;10512170;28;20773;-70
2022/08/09 03:36:26;;;;;;;4.13;1.70;;;;;;;10.69;94.04;97510.75;10512486;28;20267;-69
2022/08/09 03:41:26;;;;;;;2.17;1.97;;;;;;;10.65;94.18;97512.81;10512242;28;20218;-70
2022/08/09 03:46:26;;;;;;;3.27;1.80;;;;;;;10.65;94.45;97515.44;10529819;28;20195;-70
2022/08/09 03:51:27;;;;;;;2.27;2.00;;;;;;;10.62;94.22;97515.69;10530032;28;20232;-70
2022/08/09 03:56:28;;;;;;;1.77;1.60;;;;;;;10.55;94.80;97514.63;10512151;28;20233;-69
2022/08/09 04:01:29;;;;;;;3.27;2.10;;;;;;;10.55;95.02;97519.84;10513064;28;20214;-69
2022/08/09 04:06:29;;;;;;;4.53;1.60;;;;;;;10.57;94.98;97511.88;10519292;28;20297;-70
2022/08/09 04:11:44;;;;;;;2.47;1.77;;;;;;;10.64;94.62;97513.78;10518115;28;20724;-70
2022/08/09 04:16:44;;;;;;;3.20;2.50;;;;;;;10.64;94.57;97526.06;10518678;28;20213;-70
2022/08/09 04:21:45;;;;;;;2.97;2.67;;;;;;;10.71;93.58;97517.50;10535746;28;20306;-70
2022/08/09 04:26:45;;;;;;;2.17;1.97;;;;;;;10.70;93.57;97526.34;10537723;28;20190;-70
2022/08/09 04:31:46;;;;;;;3.70;2.00;;;;;;;10.73;93.52;97525.22;10537206;28;20194;-70
2022/08/09 04:36:46;;;;;;;2.00;1.80;;;;;;;10.83;93.22;97522.63;10518989;28;20222;-70
2022/08/09 04:41:46;;;;;;;3.00;2.00;;;;;;;10.87;93.31;97527.47;10536942;28;20225;-70
2022/08/09 04:46:47;;;;;;;1.90;1.80;;;;;;;11.06;92.14;97521.34;10536509;28;20328;-70
2022/08/09 04:51:47;;;;;;;4.37;1.97;;;;;;;11.29;90.47;97517.63;10534723;28;20562;-70
2022/08/09 04:56:47;;;;;;;2.13;1.83;;;;;;;11.51;89.74;97526.94;10534919;28;20632;-70
2022/08/09 05:01:48;;;;;;;2.20;1.70;;;;;;;11.70;87.80;97520.81;10534528;28;20581;-70
2022/08/09 05:06:48;;;;;;;2.07;1.60;;;;;;;11.98;86.05;97518.25;10525501;28;20600;-71
2022/08/09 05:11:48;;;;;;;2.90;1.90;;;;;;;12.10;85.71;97514.47;10572370;28;20622;-71
2022/08/09 05:16:49;;;;;;;2.97;1.80;;;;;;;12.34;84.72;97521.78;10573108;28;20190;-71
2022/08/09 05:21:49;;;;;;;1.98;1.58;;;;;;;12.60;83.53;97519.28;10554323;28;20224;-71
2022/08/09 05:26:51;;;;;;;4.22;1.73;;;;;;;12.87;82.14;97519.34;10574237;28;20190;-71
2022/08/09 05:31:52;;;;;;;1.92;1.70;;;;;;;13.17;80.97;97508.41;10556921;28;20645;-71
2022/08/09 05:36:52;;;;;;;3.00;1.55;;;;;;;13.47;79.70;97513.41;10578939;27;20210;-71
2022/08/09 05:41:53;;;;;;;3.08;1.73;;;;;;;13.80;77.72;97500.41;10575236;28;20213;-71
2022/08/09 05:46:53;;;;;;;4.20;1.70;;;;;;;14.17;77.07;97500.09;10540547;28;20196;-70
2022/08/09 05:51:53;;;;;;;1.92;1.70;;;;;;;14.49;75.13;97492.44;10574688;28;20190;-70
2022/08/09 05:56:54;;;;;;;4.93;1.70;;;;;;;14.97;74.58;97485.59;10575053;28;20394;-71
2022/08/09 06:01:54;;;;;;;4.85;1.80;;;;;;;15.48;72.73;97473.00;10574450;28;20278;-69
2022/08/09 06:06:55;;;;;;;2.38;1.70;;;;;;;16.00;70.65;97455.84;10575222;28;20709;-70
2022/08/09 06:11:55;;;;;;;2.78;1.30;;;;;;;17.23;65.88;97403.03;10574163;28;20601;-70
2022/08/09 06:16:55;;;;;;;1.90;1.30;;;;;;;18.09;63.71;97394.56;10574752;28;20645;-70
2022/08/09 06:21:56;;;;;;;4.40;1.40;;;;;;;18.89;61.76;97387.34;10574891;28;20626;-70
2022/08/09 06:26:56;;;;;;;6.20;1.48;;;;;;;20.75;56.29;97319.09;10572677;28;20643;-70
2022/08/09 06:31:57;;;;;;;3.20;1.33;;;;;;;21.76;52.77;97282.31;10562691;28;20654;-70
2022/08/09 06:36:57;;;;;;;2.28;1.17;;;;;;;22.30;50.77;97264.94;10574974;28;20578;-70
2022/08/09 06:41:57;;;;;;;2.60;1.30;;;;;;;21.52;54.27;97346.84;10572785;28;20366;-70
2022/08/09 06:46:59;;;;;;;1.83;1.30;;;;;;;22.98;49.80;97285.47;10561624;28;20559;-70
2022/08/09 06:51:59;;;;;;;2.70;1.33;;;;;;;23.99;47.29;97262.88;10579463;28;20289;-70
2022/08/09 06:56:59;;;;;;;2.80;1.10;;;;;;;24.80;41.53;97123.06;10583740;27;20245;-70
2022/08/09 07:02:00;;;;;;;2.35;1.10;;;;;;;25.62;39.64;97119.19;10623627;27;20589;-70
2022/08/09 07:07:00;;;;;;;3.95;1.17;;;;;;;25.13;40.17;97116.16;10592161;27;20190;-70
2022/08/09 07:12:01;;;;;;;9.05;1.33;;;;;;;25.64;39.40;97138.56;10581010;28;20724;-70
2022/08/09 07:17:01;;;;;;;1.53;1.13;;;;;;;26.16;37.01;97094.56;10580697;28;20198;-70
2022/08/09 07:22:01;;;;;;;1.87;1.17;;;;;;;24.89;38.60;97098.31;10580092;28;20562;-70
2022/08/09 07:27:02;;;;;;;3.42;1.27;;;;;;;25.14;38.09;97104.41;10580988;28;20444;-70
2022/08/09 07:32:03;;;;;;;2.70;1.20;;;;;;;25.49;38.99;97159.75;10579513;28;20181;-70
2022/08/09 07:37:03;;;;;;;1.40;0.95;;;;;;;26.03;37.88;97144.03;10579879;28;20734;-70
2022/08/09 07:42:04;;;;;;;3.88;1.23;;;;;;;26.22;37.56;97149.97;10579800;28;20224;-71
2022/08/09 07:47:04;;;;;;;5.82;1.13;;;;;;;27.03;35.75;97116.34;10579794;28;20661;-70
2022/08/09 07:52:05;;;;;;;1.77;1.23;;;;;;;27.33;34.56;97099.72;10579487;28;20186;-70
2022/08/09 07:57:05;;;;;;;4.05;1.63;;;;;;;27.31;34.69;97109.09;10578384;28;20234;-70
2022/08/09 08:02:06;;;;;;;3.05;1.05;;;;;;;27.06;34.69;97086.28;10579193;28;20658;-70
2022/08/09 08:07:06;;;;;;;2.50;1.17;;;;;;;27.86;35.00;97147.56;10577795;28;20182;-70
2022/08/09 08:12:07;;;;;;;4.60;1.30;;;;;;;27.05;35.71;97115.03;10578689;28;20617;-71
2022/08/09 08:17:07;;;;;;;2.05;1.08;;;;;;;28.37;33.42;97098.63;10578043;28;21077;-70
2022/08/09 08:22:07;;;;;;;3.08;1.48;;;;;;;27.68;34.54;97129.91;10577861;28;20673;-70
2022/08/09 08:27:08;;;;;;;3.27;1.37;;;;;;;27.09;35.20;97115.34;10578350;28;20228;-70
2022/08/09 08:32:08;;;;;;;1.65;1.02;;;;;;;27.52;33.79;97089.41;10577417;28;20443;-70
2022/08/09 08:37:34;;;;;;;3.43;1.50;;;;;;;27.60;35.01;97141.97;10577245;28;20892;-72
2022/08/09 08:42:34;;;;;;;3.60;1.50;;;;;;;27.91;34.25;97142.22;10560652;28;20482;-71
2022/08/09 08:47:35;;;;;;;4.93;1.20;;;;;;;27.99;35.06;97163.28;10577857;28;20653;-70
2022/08/09 08:52:36;;;;;;;2.70;1.52;;;;;;;28.13;34.06;97131.34;10575920;28;20230;-72
2022/08/09 08:57:36;;;;;;;3.08;1.67;;;;;;;28.55;34.48;97160.16;10577017;28;20660;-71
2022/08/09 09:02:37;;;;;;;2.25;1.27;;;;;;;28.39;33.12;97124.25;10576697;28;20228;-72
2022/08/09 09:07:39;;;;;;;4.65;1.60;;;;;;;27.67;34.97;97150.66;10575565;28;20645;-72
2022/08/09 09:12:39;;;;;;;7.20;1.45;;;;;;;29.66;31.36;97122.22;10557341;28;20251;-71
2022/08/09 09:17:41;;;;;;;9.50;1.73;;;;;;;29.11;32.49;97118.31;10575704;28;20205;-71
2022/08/09 09:22:54;;;;;;;6.30;1.50;;;;;;;29.23;32.14;97120.81;10575825;28;20316;-71
2022/08/09 09:27:55;;;;;;;2.10;1.50;;;;;;;30.40;31.18;97138.94;10553681;28;20488;-75
2022/08/09 09:33:03;;;;;;;8.93;1.70;;;;;;;29.79;31.81;97126.28;10555551;28;20204;-75
2022/08/09 09:38:04;;;;;;;1.73;1.40;;;;;;;28.16;33.76;97111.97;10556033;28;20245;-75
2022/08/09 09:43:04;;;;;;;3.35;1.67;;;;;;;29.52;32.11;97130.03;10525618;28;21010;-75
2022/08/09 09:48:05;;;;;;;2.55;1.63;;;;;;;28.62;32.71;97096.06;10537370;28;20243;-75
2022/08/09 09:53:05;;;;;;;6.30;1.50;;;;;;;30.48;29.40;97080.00;10533695;28;20367;-75
2022/08/09 09:58:07;;;;;;;11.18;1.83;;;;;;;30.53;29.53;97075.34;10531916;28;20182;-75
2022/08/09 10:03:07;;;;;;;1.85;1.35;;;;;;;29.53;30.63;97087.66;10542371;28;20233;-72
2022/08/09 10:08:07;;;;;;;2.07;1.50;;;;;;;28.42;32.54;97096.78;10535707;28;20205;-72
2022/08/09 10:13:08;;;;;;;2.00;1.60;;;;;;;30.23;29.94;97090.56;10572582;28;20467;-71
2022/08/09 10:18:17;;;;;;;3.88;1.40;;;;;;;28.89;31.67;97051.94;10571405;28;20519;-73
2022/08/09 10:23:19;;;;;;;3.13;1.60;;;;;;;30.31;30.37;97104.63;10562216;28;20208;-75
2022/08/09 10:28:20;;;;;;;5.10;1.60;;;;;;;29.86;30.72;97096.31;10567299;28;20190;-74
2022/08/09 10:33:20;;;;;;;10.20;1.77;;;;;;;29.93;31.58;97128.47;10564443;28;20717;-75
2022/08/09 10:38:20;;;;;;;5.70;1.70;;;;;;;30.24;30.56;97091.38;10542781;28;21040;-75
2022/08/09 10:43:21;;;;;;;4.60;1.40;;;;;;;29.08;32.23;97116.16;10547469;28;20199;-75
2022/08/09 10:48:35;;;;;;;3.88;1.25;;;;;;;27.83;34.22;97137.31;10544557;28;20480;-71
2022/08/09 10:54:01;;;;;;;3.45;1.73;;;;;;;28.19;33.12;97097.16;10540823;28;20306;-71
2022/08/09 10:59:20;;;;;;;1.67;1.25;;;;;;;29.25;33.76;97178.84;10565905;27;20223;-71
2022/08/09 11:04:22;;;;;;;4.28;1.77;;;;;;;28.60;33.73;97143.25;10578063;27;20536;-71
2022/08/09 11:09:46;;;;;;;1.90;1.70;;;;;;;27.60;34.87;97133.88;10555969;28;20285;-71
2022/08/09 11:14:53;;;;;;;4.68;1.65;;;;;;;27.26;35.72;97166.34;10545387;27;20229;-71
2022/08/09 11:20:08;;;;;;;2.63;1.67;;;;;;;27.53;35.83;97195.16;10573380;27;20222;-71
2022/08/09 11:25:12;;;;;;;3.75;1.60;;;;;;;29.10;33.02;97149.09;10575433;27;20178;-71
2022/08/09 11:30:22;;;;;;;8.60;1.35;;;;;;;31.33;29.84;97148.59;10577554;27;20211;-69
2022/08/09 11:35:22;;;;;;;4.03;1.60;;;;;;;32.12;28.52;97102.50;10575457;27;20244;-71
2022/08/09 11:40:23;;;;;;;4.07;1.30;;;;;;;31.30;29.58;97095.81;10600028;27;20232;-71
2022/08/09 11:45:28;;;;;;;2.65;1.60;;;;;;;31.01;30.97;97141.72;10587358;27;20260;-75
2022/08/09 11:50:29;;;;;;;3.03;1.65;;;;;;;31.38;29.87;97119.59;10582300;27;20231;-74
2022/08/09 11:55:31;;;;;;;7.28;1.35;;;;;;;30.81;28.84;97021.66;10543408;28;20238;-74
2022/08/09 12:00:32;;;;;;;1.92;1.30;;;;;;;29.14;32.60;97102.44;10576674;28;20670;-74
2022/08/09 12:05:35;;;;;;;3.72;1.63;;;;;;;29.61;31.47;97091.72;10567552;28;20217;-71
2022/08/09 12:10:41;;;;;;;4.93;1.38;;;;;;;29.35;31.89;97086.28;10536311;28;20214;-71
2022/08/09 12:15:42;;;;;;;3.13;1.33;;;;;;;28.55;33.54;97117.03;10551597;28;20206;-71
2022/08/09 12:20:43;;;;;;;4.68;1.80;;;;;;;28.25;34.46;97123.06;10577833;28;20202;-71
2022/08/09 12:25:50;;;;;;;2.53;1.50;;;;;;;27.83;34.89;97140.00;10577799;28;20281;-71
2022/08/09 12:30:51;;;;;;;2.95;1.50;;;;;;;27.97;33.18;97078.47;10559719;28;20211;-71
2022/08/09 12:36:03;;;;;;;6.30;1.52;;;;;;;27.78;34.35;97119.22;10576714;28;20256;-71
2022/08/09 12:41:04;;;;;;;4.97;1.80;;;;;;;27.76;34.09;97126.72;10576643;28;20220;-71
2022/08/09 12:46:06;;;;;;;4.03;1.60;;;;;;;28.78;31.72;97061.88;10577445;28;20549;-71
2022/08/09 12:51:06;;;;;;;2.75;1.10;;;;;;;31.10;29.77;97102.16;10558603;28;20257;-72
2022/08/09 12:56:16;;;;;;;1.73;1.35;;;;;;;32.17;27.77;97075.34;10558573;28;20231;-72
2022/08/09 13:01:25;;;;;;;3.10;1.45;;;;;;;32.35;28.61;97098.19;10576674;28;20266;-72
2022/08/09 13:06:27;;;;;;;3.50;1.40;;;;;;;32.96;26.87;97047.00;10575939;28;20317;-72
2022/08/09 13:11:30;;;;;;;2.53;1.20;;;;;;;32.75;27.32;97043.75;10575828;28;20190;-72
2022/08/09 13:16:49;;;;;;;1.73;1.50;;;;;;;32.14;27.59;97043.38;10557504;28;20254;-71
2022/08/09 13:22:11;;;;;;;4.10;1.40;;;;;;;30.23;29.36;96993.28;10576210;28;20600;-72
2022/08/09 13:27:29;;;;;;;1.70;1.30;;;;;;;29.97;30.28;97033.09;10575611;28;20670;-72
2022/08/09 13:32:47;;;;;;;2.63;1.30;;;;;;;29.81;31.05;97062.00;10574484;28;20185;-71
2022/08/09 13:37:48;;;;;;;4.95;1.40;;;;;;;31.54;29.42;97084.28;10575771;28;20206;-72
2022/08/09 13:42:49;;;;;;;3.10;1.10;;;;;;;30.90;29.00;97030.81;10574710;28;20990;-72
2022/08/09 13:47:49;;;;;;;3.65;1.35;;;;;;;31.09;28.94;97036.41;10574737;28;20310;-71
2022/08/09 13:52:50;;;;;;;6.07;1.30;;;;;;;30.48;29.71;97032.13;10574661;28;20232;-71
2022/08/09 13:57:50;;;;;;;5.73;1.63;;;;;;;31.11;27.66;96993.63;10574470;28;20512;-71
2022/08/09 14:02:51;;;;;;;6.07;1.40;;;;;;;29.63;29.45;96971.56;10558877;28;20488;-70
2022/08/09 14:07:51;;;;;;;3.03;1.27;;;;;;;28.54;31.23;97025.66;10545082;28;20511;-75
2022/08/09 14:12:51;;;;;;;1.87;1.17;;;;;;;28.25;31.20;97004.53;10573375;28;20201;-75
2022/08/09 14:17:52;;;;;;;5.70;1.63;;;;;;;28.20;32.36;97031.44;10555751;28;20527;-75
2022/08/09 14:22:52;;;;;;;1.75;1.40;;;;;;;27.88;32.38;97026.94;10574013;28;20482;-74
2022/08/09 14:27:52;;;;;;;8.80;1.40;;;;;;;28.23;32.48;97060.56;10574178;28;20677;-75
2022/08/09 14:32:53;;;;;;;4.13;1.50;;;;;;;28.49;32.08;97049.91;10572910;28;20972;-75
2022/08/09 14:37:53;;;;;;;3.00;1.50;;;;;;;28.39;31.78;97040.69;10573796;28;20825;-74
2022/08/09 14:42:53;;;;;;;4.20;1.55;;;;;;;29.34;31.62;97084.66;10573354;28;20891;-75
2022/08/09 14:47:54;;;;;;;4.10;1.83;;;;;;;28.19;33.66;97081.00;10573617;28;20186;-75
2022/08/09 14:52:54;;;;;;;3.73;1.70;;;;;;;29.80;30.88;97078.47;10572861;28;20524;-75
2022/08/09 14:57:55;;;;;;;3.17;1.58;;;;;;;32.05;28.13;97072.19;10573422;28;20443;-74
2022/08/09 15:02:55;;;;;;;6.07;1.67;;;;;;;33.85;27.17;97130.41;10572901;28;20222;-75
2022/08/09 15:07:56;;;;;;;5.97;1.67;;;;;;;30.69;28.87;96991.44;10579356;28;20447;-75
2022/08/09 15:12:56;;;;;;;3.67;1.45;;;;;;;28.95;31.61;97021.19;10579277;28;21010;-74
2022/08/09 15:17:57;;;;;;;4.68;1.67;;;;;;;27.65;32.95;97017.38;10578611;28;20289;-74
2022/08/09 15:22:57;;;;;;;8.50;2.00;;;;;;;27.19;33.52;97028.56;10578435;28;20308;-74
2022/08/09 15:27:58;;;;;;;4.07;1.50;;;;;;;27.21;33.05;97012.97;10578822;28;20194;-74
2022/08/09 15:32:58;;;;;;;4.72;1.60;;;;;;;26.73;34.36;97058.47;10559130;28;20276;-75
2022/08/09 15:37:58;;;;;;;6.85;1.52;;;;;;;28.04;31.20;97009.00;10577124;28;20243;-76
2022/08/09 15:42:59;;;;;;;5.53;1.60;;;;;;;28.90;30.40;97013.09;10577665;28;20213;-75
2022/08/09 15:48:00;;;;;;;2.55;1.50;;;;;;;30.24;29.17;97018.41;10577077;28;20442;-75
2022/08/09 15:53:00;;;;;;;5.95;1.58;;;;;;;29.48;30.00;97004.78;10576536;28;20229;-75
2022/08/09 15:58:01;;;;;;;4.63;1.80;;;;;;;28.24;32.17;97040.59;10576273;28;20626;-75
2022/08/09 16:03:01;;;;;;;2.07;1.57;;;;;;;27.81;32.38;97040.63;10541565;28;20955;-75
2022/08/09 16:08:02;;;;;;;6.70;1.90;;;;;;;27.04;33.33;97026.53;10579672;28;20462;-75
2022/08/09 16:13:02;;;;;;;2.97;1.60;;;;;;;27.52;33.30;97056.28;10576698;28;20431;-75
2022/08/09 16:18:03;;;;;;;5.60;1.75;;;;;;;29.66;30.58;97073.63;10578245;28;20227;-75
2022/08/09 16:23:04;;;;;;;3.72;1.50;;;;;;;31.20;28.41;97033.63;10569613;28;20249;-75
2022/08/09 16:28:04;;;;;;;2.05;1.65;;;;;;;30.65;29.02;97026.38;10537002;28;20269;-75
2022/08/09 16:33:07;;;;;;;3.40;1.80;;;;;;;29.24;31.68;97053.09;10519342;28;20204;-75
2022/08/09 16:38:08;;;;;;;5.90;1.77;;;;;;;28.96;31.27;97024.69;10538509;28;20645;-75
2022/08/09 16:43:08;;;;;;;4.38;1.80;;;;;;;28.58;32.38;97051.00;10535097;28;20315;-75
2022/08/09 16:48:09;;;;;;;5.53;1.90;;;;;;;28.26;32.42;97035.78;10535881;28;20607;-75
2022/08/09 16:53:09;;;;;;;5.82;1.73;;;;;;;27.52;33.55;97049.03;10516684;28;20273;-75
2022/08/09 16:58:10;;;;;;;1.47;1.30;;;;;;;26.96;33.42;97030.50;10535225;28;20225;-75
2022/08/09 17:03:10;;;;;;;5.90;1.73;;;;;;;26.14;34.49;97021.47;10534544;28;20484;-75
2022/08/09 17:08:11;;;;;;;5.20;1.80;;;;;;;25.67;35.89;97054.88;10534970;28;20203;-75
2022/08/09 17:13:11;;;;;;;1.67;1.52;;;;;;;25.50;36.28;97071.00;10533759;28;20439;-75
2022/08/09 17:18:12;;;;;;;7.13;2.53;;;;;;;24.88;37.46;97087.81;10535569;28;20214;-75
2022/08/09 17:23:12;;;;;;;4.05;1.85;;;;;;;24.54;38.08;97093.84;10532534;28;20349;-75
2022/08/09 17:28:13;;;;;;;3.08;1.90;;;;;;;24.57;38.35;97122.03;10533108;28;20190;-75
2022/08/09 17:33:13;;;;;;;5.38;1.95;;;;;;;24.80;37.78;97113.16;10513664;28;20265;-76
2022/08/09 17:38:13;;;;;;;4.97;2.30;;;;;;;24.64;38.15;97125.44;10532786;28;20202;-75
2022/08/09 17:43:14;;;;;;;3.55;2.17;;;;;;;24.52;38.84;97140.69;10533313;28;20230;-75
2022/08/09 17:48:14;;;;;;;9.32;5.00;;;;;;;24.40;38.93;97144.16;10532304;28;20195;-75
2022/08/09 17:53:15;;;;;;;5.53;4.50;;;;;;;24.31;38.61;97112.63;10531819;28;20234;-75
2022/08/09 17:58:17;;;;;;;8.68;5.15;;;;;;;24.08;40.01;97165.13;10532386;28;20186;-75
2022/08/09 18:03:17;;;;;;;10.35;6.45;;;;;;;23.90;40.67;97183.97;10513405;28;20222;-75
2022/08/09 18:08:18;;;;;;;19.25;12.90;;;;;;;23.55;40.98;97185.47;10532130;28;20213;-75
2022/08/09 18:13:18;;;;;;;7.53;6.28;;;;;;;23.38;41.17;97187.97;10531896;28;20187;-74
2022/08/09 18:18:19;;;;;;;10.40;7.97;;;;;;;23.04;40.90;97170.72;10531962;28;20248;-75
2022/08/09 18:23:19;;;;;;;3.30;1.90;;;;;;;23.00;42.84;97231.78;10530597;28;20222;-75
2022/08/09 18:28:21;;;;;;;4.60;1.88;;;;;;;22.08;45.33;97283.13;10532539;28;20194;-75
2022/08/09 18:33:22;;;;;;;8.55;2.00;;;;;;;20.93;47.54;97305.16;10533300;28;20198;-75
2022/08/09 18:38:23;;;;;;;7.97;1.73;;;;;;;20.74;49.04;97352.91;10534006;28;20221;-75
2022/08/09 18:43:23;;;;;;;3.95;2.00;;;;;;;20.72;49.39;97370.94;10540522;28;20214;-74
2022/08/09 18:48:24;;;;;;;4.47;2.00;;;;;;;20.40;50.50;97380.50;10539995;28;20255;-75
2022/08/09 18:53:26;;;;;;;5.95;2.05;;;;;;;20.15;51.22;97418.31;10541293;28;20276;-74
2022/08/09 18:58:27;;;;;;;5.57;2.33;;;;;;;19.58;52.61;97436.25;10540032;28;20213;-75
2022/08/09 19:03:27;;;;;;;4.72;1.85;;;;;;;18.79;54.58;97462.00;10521824;28;20322;-75
2022/08/09 19:08:27;;;;;;;2.60;1.90;;;;;;;18.54;55.62;97480.97;10576768;27;20185;-75
2022/08/09 19:13:28;;;;;;;6.25;2.00;;;;;;;18.61;55.48;97478.38;10577652;28;20584;-76
2022/08/09 19:18:28;;;;;;;5.70;2.00;;;;;;;18.63;55.29;97478.16;10578651;27;20196;-76
2022/08/09 19:23:29;;;;;;;3.28;2.15;;;;;;;18.68;55.28;97483.72;10599324;27;20217;-76
2022/08/09 19:28:29;;;;;;;5.15;2.10;;;;;;;18.63;55.52;97486.13;10586870;27;20202;-75
2022/08/09 19:33:29;;;;;;;5.70;2.03;;;;;;;18.24;56.76;97497.94;10580807;28;20298;-76
2022/08/09 19:38:30;;;;;;;6.93;2.30;;;;;;;18.09;57.88;97521.84;10561553;28;20755;-76
2022/08/09 19:43:31;;;;;;;6.40;2.45;;;;;;;17.89;57.98;97510.97;10580144;28;20218;-76
2022/08/09 19:48:43;;;;;;;3.53;2.08;;;;;;;17.88;58.19;97502.16;10563002;28;20198;-76
2022/08/09 19:54:28;;;;;;;6.22;2.53;;;;;;;17.90;58.06;97504.66;10580279;28;20588;-75
2022/08/09 20:00:04;;;;;;;5.93;2.20;;;;;;;17.73;57.96;97496.84;10549543;28;20593;-75
2022/08/09 20:05:10;;;;;;;2.85;2.15;;;;;;;17.72;57.92;97497.03;10480698;28;20195;-75
2022/08/09 20:10:11;;;;;;;8.48;2.40;;;;;;;17.71;57.87;97495.41;10496561;28;20894;-75
2022/08/09 20:15:28;;;;;;;;;;;;;;;;;;;;;
2022/08/09 20:20:29;;;;;;;6.25;2.10;;;;;;;17.44;58.90;97495.84;10492273;28;20308;-74
2022/08/09 20:25:29;;;;;;;3.60;2.17;;;;;;;17.15;59.33;97515.16;10495731;28;20290;-75
2022/08/09 20:30:29;;;;;;;8.40;2.30;;;;;;;17.05;59.76;97517.22;10495919;28;20222;-74
2022/08/09 20:35:30;;;;;;;6.63;2.22;;;;;;;16.85;60.36;97522.13;10495341;28;20290;-75
2022/08/09 20:40:30;;;;;;;6.88;2.20;;;;;;;16.85;60.49;97524.78;10494557;28;20238;-74
2022/08/09 20:45:30;;;;;;;12.38;3.13;;;;;;;16.62;61.30;97533.50;10495573;28;20203;-74
2022/08/09 20:50:31;;;;;;;3.67;2.20;;;;;;;16.33;62.36;97545.56;10494383;28;20206;-74
2022/08/09 20:55:31;;;;;;;5.50;2.53;;;;;;;16.28;62.89;97558.47;10494631;28;20230;-74
2022/08/09 21:00:32;;;;;;;6.85;2.50;;;;;;;16.09;63.12;97559.69;10494440;28;20247;-75
2022/08/09 21:31:20;;;;;;;3.30;2.15;;;;;;;15.19;67.22;97613.44;10370912;28;20190;-74
2022/08/09 21:36:22;;;;;;;9.38;2.55;;;;;;;14.95;68.57;97609.75;10491704;28;20210;-74
2022/08/09 21:41:22;;;;;;;3.38;2.33;;;;;;;14.94;68.62;97613.38;10473273;28;20219;-74
2022/08/09 21:46:23;;;;;;;7.22;2.63;;;;;;;14.87;68.69;97607.13;10491474;28;20183;-74
2022/08/09 21:51:23;;;;;;;5.95;2.60;;;;;;;14.83;68.82;97605.78;10472722;28;20206;-74
2022/08/09 21:56:23;;;;;;;8.68;2.58;;;;;;;14.76;69.25;97605.59;10491448;28;20687;-74
2022/08/09 22:01:24;;;;;;;10.25;2.70;;;;;;;14.60;69.80;97606.38;10490665;28;20712;-74
2022/08/09 22:06:24;;;;;;;4.53;2.40;;;;;;;14.49;70.67;97616.38;10472383;28;20663;-74
2022/08/09 22:11:25;;;;;;;2.70;2.05;;;;;;;14.36;71.12;97619.44;10490746;28;20634;-75
2022/08/09 22:16:25;;;;;;;4.45;2.72;;;;;;;14.27;71.45;97621.19;10489960;28;20198;-74
2022/08/09 22:21:27;;;;;;;5.45;2.50;;;;;;;14.30;71.76;97622.69;10472562;28;20218;-75
2022/08/09 22:26:32;;;;;;;7.57;2.70;;;;;;;14.17;72.19;97613.41;10472723;28;20187;-75
2022/08/09 22:31:32;;;;;;;5.15;2.85;;;;;;;14.17;72.29;97613.41;10490076;28;20266;-74
2022/08/09 22:36:32;;;;;;;4.78;2.97;;;;;;;14.07;72.74;97610.91;10490445;28;20225;-74
2022/08/09 22:41:33;;;;;;;3.47;2.50;;;;;;;13.89;73.37;97626.75;10490147;28;20317;-74
2022/08/09 22:46:33;;;;;;;3.92;2.30;;;;;;;13.82;74.05;97623.06;10472628;28;20183;-74
2022/08/09 22:51:33;;;;;;;5.88;2.58;;;;;;;13.74;74.58;97628.31;10489722;28;20602;-74
2022/08/09 22:56:34;;;;;;;5.00;2.33;;;;;;;13.60;75.13;97624.41;10489838;28;20589;-74
2022/08/09 23:01:34;;;;;;;4.47;2.55;;;;;;;13.49;75.95;97616.75;10489386;28;20337;-74
2022/08/09 23:11:53;;;;;;;3.10;2.70;;;;;;;13.37;76.63;97613.53;10489334;28;20207;-74
2022/08/09 23:16:54;;;;;;;3.38;2.30;;;;;;;13.31;77.27;97620.19;10489633;28;20180;-75
2022/08/09 23:21:54;;;;;;;4.05;2.50;;;;;;;13.28;77.65;97615.25;10488673;28;20779;-75
2022/08/09 23:26:55;;;;;;;10.65;2.53;;;;;;;13.18;78.01;97607.44;10493373;28;20257;-75
2022/08/09 23:31:55;;;;;;;4.78;2.40;;;;;;;13.15;78.33;97609.53;10496889;28;20195;-75
2022/08/09 23:36:55;;;;;;;4.53;2.80;;;;;;;13.16;78.22;97609.38;10496363;28;20249;-75
2022/08/09 23:41:56;;;;;;;3.65;2.50;;;;;;;13.09;79.30;97613.56;10496525;28;20234;-74
2022/08/09 23:46:56;;;;;;;11.15;2.83;;;;;;;13.06;79.14;97607.78;10496334;28;20282;-75
2022/08/09 23:51:56;;;;;;;5.15;2.60;;;;;;;12.97;80.06;97614.75;10496671;28;20201;-75
2022/08/09 23:56:57;;;;;;;4.85;2.60;;;;;;;12.97;80.36;97606.88;10480896;28;20288;-74
